Time;durP1;ratioP1;P1;durP2;ratioP2;P2;SDS_P1;SDS_P2;PMS_P1;PMS_P2;Temp;Humidity;BMP_temperature;BMP_pressure;BME280_temperature;BME280_humidity;BME280_pressure;Samples;Min_cycle;Max_cycle;Signal;HPM_P1;HPM_P2
2024/01/01 00:01:28;;;;;;;2.55;2.28;;;;;;;7.33;100.00;97578.09;4169737;28;20302;-51
2024/01/01 00:03:30;;;;;;;1.77;1.63;;;;;;;7.36;100.00;97583.84;4172207;28;20339;-50
2024/01/01 00:05:32;;;;;;;1.42;1.23;;;;;;;7.39;100.00;97577.06;4171764;28;20211;-54
2024/01/01 00:07:34;;;;;;;1.55;1.48;;;;;;;7.36;100.00;97589.28;4171441;28;20253;-50
2024/01/01 00:09:36;;;;;;;1.70;1.60;;;;;;;7.34;100.00;97582.44;4170230;28;20344;-50
2024/01/01 00:11:38;;;;;;;1.50;1.40;;;;;;;7.36;100.00;97583.03;4167611;28;20220;-52
2024/01/01 00:13:42;;;;;;;2.15;1.75;;;;;;;7.29;100.00;97587.84;4168355;28;20291;-50
2024/01/01 00:15:44;;;;;;;11.77;2.40;;;;;;;7.31;100.00;97580.25;4165545;28;20693;-50
2024/01/01 00:17:46;;;;;;;2.08;1.98;;;;;;;7.32;100.00;97587.31;4164541;28;20212;-55
2024/01/01 00:19:48;;;;;;;3.30;2.33;;;;;;;7.33;100.00;97578.09;4173440;28;20257;-53
2024/01/01 00:21:49;;;;;;;1.75;1.65;;;;;;;7.29;100.00;97571.53;4165358;28;20574;-51
2024/01/01 00:23:51;;;;;;;2.47;2.28;;;;;;;7.29;100.00;97576.97;4166277;28;20239;-51
2024/01/01 00:25:53;;;;;;;2.47;1.40;;;;;;;7.25;100.00;97584.81;4171504;28;20220;-50
2024/01/01 00:27:54;;;;;;;1.58;1.38;;;;;;;7.28;100.00;97572.59;4173963;28;20291;-51
2024/01/01 00:29:56;;;;;;;4.03;1.73;;;;;;;7.27;100.00;97589.97;4168455;28;20717;-50
2024/01/01 00:31:58;;;;;;;1.67;1.55;;;;;;;7.29;100.00;97583.22;4167107;28;20647;-49
2024/01/01 00:34:00;;;;;;;14.48;1.40;;;;;;;7.31;100.00;97569.38;4167716;28;20296;-51
2024/01/01 00:36:02;;;;;;;1.35;1.25;;;;;;;7.37;100.00;97566.44;4166883;28;20208;-52
2024/01/01 00:38:03;;;;;;;1.73;1.63;;;;;;;7.33;100.00;97575.38;4168246;28;20270;-51
2024/01/01 00:40:06;;;;;;;1.45;1.35;;;;;;;7.31;100.00;97580.25;4185566;28;20228;-51
2024/01/01 00:42:08;;;;;;;1.90;1.42;;;;;;;7.29;100.00;97577.78;4168115;28;20601;-51
2024/01/01 00:44:10;;;;;;;2.58;2.47;;;;;;;7.33;100.00;97583.53;4166897;28;20267;-50
2024/01/01 00:46:11;;;;;;;0.95;0.95;;;;;;;7.31;100.00;97596.56;4157010;28;20248;-50
2024/01/01 00:48:14;;;;;;;2.92;1.88;;;;;;;7.31;100.00;97580.25;4173731;28;20216;-49
2024/01/01 00:50:16;;;;;;;2.22;2.03;;;;;;;7.26;100.00;97570.13;4167766;28;20209;-51
2024/01/01 00:52:17;;;;;;;2.20;1.27;;;;;;;7.27;100.00;97577.22;4166953;28;20314;-51
2024/01/01 00:54:19;;;;;;;3.75;1.63;;;;;;;7.30;100.00;97557.66;4166182;28;20475;-55
2024/01/01 00:56:21;;;;;;;3.05;1.67;;;;;;;7.32;100.00;97582.72;4167964;28;21287;-51
2024/01/01 00:58:23;;;;;;;0.90;0.90;;;;;;;7.25;100.00;97578.53;4174213;28;20244;-50
2024/01/01 01:00:25;;;;;;;1.00;1.00;;;;;;;7.24;100.00;97574.16;4168090;28;20267;-53
2024/01/01 01:02:26;;;;;;;15.23;1.67;;;;;;;7.25;100.00;97586.69;4174958;28;20215;-49
2024/01/01 01:04:28;;;;;;;0.63;0.63;;;;;;;7.27;100.00;97596.25;4165688;28;20204;-52
2024/01/01 01:06:30;;;;;;;1.88;1.17;;;;;;;7.29;100.00;97585.13;4168080;28;20219;-50
2024/01/01 01:09:17;;;;;;;1.42;1.23;;;;;;;7.23;100.00;97592.38;4167696;28;20256;-53
2024/01/01 01:11:19;;;;;;;1.10;1.08;;;;;;;7.27;100.00;97589.97;4164526;28;20212;-54
2024/01/01 01:13:21;;;;;;;1.77;1.67;;;;;;;7.25;100.00;97586.69;4163548;28;20208;-52
2024/01/01 01:15:25;;;;;;;2.67;0.90;;;;;;;7.21;100.00;97591.81;4196452;28;20203;-52
2024/01/01 01:17:27;;;;;;;1.77;1.23;;;;;;;7.25;100.00;97597.56;4170896;28;20216;-51
2024/01/01 01:19:29;;;;;;;0.73;0.73;;;;;;;7.19;100.00;97599.41;4169213;28;20228;-53
2024/01/01 01:21:30;;;;;;;1.30;1.02;;;;;;;7.17;100.00;97600.72;4166692;28;20251;-53
2024/01/01 01:23:32;;;;;;;1.58;1.48;;;;;;;7.18;100.00;97596.94;4169575;28;20606;-52
2024/01/01 01:25:35;;;;;;;0.68;0.68;;;;;;;7.18;100.00;97599.66;4170025;28;20212;-53
2024/01/01 01:27:37;;;;;;;1.17;1.17;;;;;;;7.15;100.00;97608.34;4168721;28;20222;-50
2024/01/01 01:29:40;;;;;;;1.02;1.00;;;;;;;7.10;100.00;97613.69;4168776;28;20282;-50
2024/01/01 01:31:42;;;;;;;1.13;1.13;;;;;;;7.15;100.00;97608.34;4168747;28;20204;-51
2024/01/01 01:33:44;;;;;;;1.00;1.00;;;;;;;7.14;100.00;97604.78;4170813;28;20199;-50
2024/01/01 01:35:45;;;;;;;0.98;0.98;;;;;;;7.16;100.00;97620.84;4159037;28;20215;-51
2024/01/01 01:37:48;;;;;;;2.83;1.40;;;;;;;7.16;100.00;97621.66;4164977;28;20215;-51
2024/01/01 01:39:49;;;;;;;1.08;1.08;;;;;;;7.15;100.00;97616.50;4167379;28;20228;-53
2024/01/01 01:41:51;;;;;;;1.05;0.85;;;;;;;7.11;100.00;97615.34;4169374;28;20212;-51
2024/01/01 01:43:53;;;;;;;0.98;0.73;;;;;;;7.13;100.00;97626.78;4174191;28;20240;-52
2024/01/01 01:45:56;;;;;;;2.85;1.17;;;;;;;7.13;100.00;97633.06;4171917;28;20295;-51
2024/01/01 01:47:58;;;;;;;3.50;0.93;;;;;;;7.11;100.00;97627.06;4173226;28;20220;-51
2024/01/01 01:50:00;;;;;;;1.88;1.50;;;;;;;7.08;100.00;97629.44;4159757;28;20225;-51
2024/01/01 01:52:03;;;;;;;0.98;0.93;;;;;;;7.11;100.00;97623.50;4151983;28;20216;-51
2024/01/01 01:54:05;;;;;;;2.25;1.20;;;;;;;7.06;100.00;97626.13;4168634;28;20300;-51
2024/01/01 01:56:07;;;;;;;5.43;1.25;;;;;;;7.10;100.00;97617.22;4167336;28;20209;-51
2024/01/01 01:58:10;;;;;;;1.85;1.75;;;;;;;7.10;100.00;97616.41;4171141;28;20690;-51
2024/01/01 02:00:12;;;;;;;1.42;1.33;;;;;;;7.08;100.00;97624.00;4169837;28;20288;-51
2024/01/01 02:02:15;;;;;;;1.08;1.00;;;;;;;7.06;100.00;97621.53;4165665;28;20633;-51
2024/01/01 02:04:16;;;;;;;0.75;0.73;;;;;;;7.04;100.00;97623.69;4169959;28;20250;-50
2024/01/01 02:06:18;;;;;;;2.03;1.88;;;;;;;7.07;100.00;97616.88;4175908;28;20219;-51
2024/01/01 02:08:21;;;;;;;3.50;0.98;;;;;;;7.07;100.00;97628.59;4168531;28;20208;-51
2024/01/01 02:10:23;;;;;;;0.95;0.95;;;;;;;7.06;100.00;97620.69;4160589;28;20212;-52
2024/01/01 02:12:24;;;;;;;13.55;2.30;;;;;;;7.03;100.00;97600.25;4173163;28;20299;-51
2024/01/01 02:14:26;;;;;;;1.80;1.70;;;;;;;7.01;100.00;97612.44;4169375;28;20234;-49
2024/01/01 02:16:28;;;;;;;2.17;1.10;;;;;;;7.01;100.00;97612.44;4167420;28;20255;-52
2024/01/01 02:18:31;;;;;;;3.97;1.27;;;;;;;6.98;100.00;97608.34;4169214;28;20678;-51
2024/01/01 02:20:33;;;;;;;0.82;0.82;;;;;;;7.00;100.00;97616.25;4173153;28;20728;-51
2024/01/01 02:22:41;;;;;;;2.78;0.93;;;;;;;7.03;100.00;97613.03;4170630;28;20204;-50
2024/01/01 02:24:43;;;;;;;0.80;0.80;;;;;;;6.99;100.00;97611.88;4176465;28;20219;-51
2024/01/01 02:26:45;;;;;;;1.63;1.52;;;;;;;6.97;100.00;97612.13;4171006;28;20278;-51
2024/01/01 02:28:47;;;;;;;0.93;0.93;;;;;;;6.95;100.00;97618.91;4171482;28;20228;-50
2024/01/01 02:30:49;;;;;;;1.35;1.25;;;;;;;6.91;100.00;97615.03;4172044;28;20209;-50
2024/01/01 02:32:51;;;;;;;0.80;0.80;;;;;;;6.81;100.00;97612.13;4168415;28;20326;-50
2024/01/01 02:34:53;;;;;;;2.20;2.05;;;;;;;6.85;100.00;97613.31;4160135;28;20637;-50
2024/01/01 02:36:55;;;;;;;1.00;0.90;;;;;;;6.88;100.00;97619.06;4171431;28;20674;-51
2024/01/01 02:38:57;;;;;;;2.05;1.25;;;;;;;6.77;100.00;97613.72;4177130;28;20236;-50
2024/01/01 02:40:58;;;;;;;1.40;1.05;;;;;;;6.73;100.00;97624.28;4170611;28;20542;-51
2024/01/01 02:43:01;;;;;;;4.88;1.17;;;;;;;6.68;100.00;97632.34;4159493;28;20308;-51
2024/01/01 02:45:04;;;;;;;1.77;1.65;;;;;;;6.63;100.00;97628.72;4164930;28;20200;-51
2024/01/01 02:47:06;;;;;;;0.73;0.73;;;;;;;6.58;100.00;97618.59;4183362;28;20693;-51
2024/01/01 02:49:08;;;;;;;1.50;1.40;;;;;;;6.58;100.00;97617.75;4166912;28;20232;-50
2024/01/01 02:51:09;;;;;;;1.20;1.20;;;;;;;6.50;100.00;97613.56;4172062;28;20301;-51
2024/01/01 02:53:11;;;;;;;0.90;0.90;;;;;;;6.50;100.00;97615.47;4179068;28;20292;-50
2024/01/01 02:55:13;;;;;;;1.45;1.35;;;;;;;6.50;100.00;97615.47;4170319;28;20226;-51
2024/01/01 02:57:15;;;;;;;2.30;0.95;;;;;;;6.50;100.00;97620.91;4170056;28;20208;-50
2024/01/01 02:59:17;;;;;;;1.20;1.20;;;;;;;6.44;100.00;97621.88;4169187;28;20236;-50
2024/01/01 03:01:18;;;;;;;1.95;1.42;;;;;;;6.48;100.00;97617.59;4172360;28;20760;-50
2024/01/01 03:03:20;;;;;;;1.75;1.65;;;;;;;6.46;100.00;97636.03;4168558;28;20542;-50
2024/01/01 03:05:25;;;;;;;1.38;1.27;;;;;;;6.50;100.00;97620.91;4178390;28;20208;-50
2024/01/01 03:07:27;;;;;;;9.82;2.22;;;;;;;6.51;100.00;97627.97;4171542;28;20257;-50
2024/01/01 03:09:31;;;;;;;1.73;1.25;;;;;;;6.48;100.00;97625.75;4171927;28;20243;-51
2024/01/01 03:11:33;;;;;;;2.83;1.88;;;;;;;6.49;100.00;97636.34;4178611;28;20204;-51
2024/01/01 03:13:35;;;;;;;7.80;0.90;;;;;;;6.53;100.00;97636.69;4175166;28;20926;-50
2024/01/01 03:15:36;;;;;;;2.00;1.90;;;;;;;6.53;100.00;97642.13;4169459;28;20205;-49
2024/01/01 03:17:38;;;;;;;1.42;1.33;;;;;;;6.47;100.00;97629.53;4170596;28;20213;-50
2024/01/01 03:19:40;;;;;;;1.90;1.55;;;;;;;6.48;100.00;97642.06;4171102;28;20457;-49
2024/01/01 03:21:43;;;;;;;1.05;1.05;;;;;;;6.55;100.00;97637.28;4167317;28;20291;-51
2024/01/01 03:23:45;;;;;;;1.25;0.90;;;;;;;6.55;100.00;97629.13;4166450;28;20232;-50
2024/01/01 03:25:47;;;;;;;0.80;0.80;;;;;;;6.53;100.00;97617.66;4169109;28;20208;-50
2024/01/01 03:27:49;;;;;;;1.05;1.05;;;;;;;6.51;100.00;97622.53;4169075;28;20363;-51
2024/01/01 03:29:50;;;;;;;1.48;1.13;;;;;;;6.53;100.00;97620.38;4170136;28;20232;-50
2024/01/01 03:31:52;;;;;;;1.02;1.00;;;;;;;6.57;100.00;97627.00;4169456;28;20212;-50
2024/01/01 03:33:54;;;;;;;3.13;2.47;;;;;;;6.58;100.00;97628.63;4169984;28;20208;-49
2024/01/01 03:35:56;;;;;;;0.70;0.70;;;;;;;6.59;100.00;97625.69;4175958;28;20204;-49
2024/01/01 03:37:58;;;;;;;1.70;1.60;;;;;;;6.62;100.00;97635.22;4168349;28;20541;-50
2024/01/01 03:40:00;;;;;;;2.17;2.05;;;;;;;6.61;100.00;97644.44;4158510;28;20231;-50
2024/01/01 03:42:02;;;;;;;2.72;1.67;;;;;;;6.61;100.00;97644.44;4172106;28;20207;-50
2024/01/01 03:44:04;;;;;;;1.60;1.50;;;;;;;6.59;100.00;97646.59;4173537;28;20311;-50
2024/01/01 03:46:06;;;;;;;1.42;1.27;;;;;;;6.57;100.00;97644.09;4175878;28;20223;-50
2024/01/01 03:48:08;;;;;;;2.78;2.67;;;;;;;6.57;100.00;97637.84;4155235;28;20208;-51
2024/01/01 03:50:11;;;;;;;5.22;1.20;;;;;;;6.54;100.00;97651.91;4168828;28;20240;-51
2024/01/01 03:52:13;;;;;;;1.77;1.67;;;;;;;6.49;100.00;97643.72;4166754;28;20201;-51
2024/01/01 03:54:15;;;;;;;2.10;1.70;;;;;;;6.44;100.00;97638.19;4170323;28;20267;-51
2024/01/01 03:56:17;;;;;;;0.75;0.70;;;;;;;6.39;100.00;97647.06;4167449;28;20574;-52
2024/01/01 03:58:18;;;;;;;0.90;0.90;;;;;;;6.40;100.00;97648.72;4170516;28;20211;-51
2024/01/01 04:00:20;;;;;;;1.05;1.05;;;;;;;6.39;100.00;97655.22;4170915;28;20212;-51
2024/01/01 04:02:22;;;;;;;3.42;1.52;;;;;;;6.46;100.00;97660.47;4176384;28;20200;-50
2024/01/01 04:04:24;;;;;;;0.90;0.80;;;;;;;6.44;100.00;97657.19;4165034;28;20239;-51
2024/01/01 04:06:25;;;;;;;0.85;0.80;;;;;;;6.43;100.00;97647.41;4166877;28;20318;-50
2024/01/01 04:08:27;;;;;;;1.23;1.23;;;;;;;6.34;100.00;97649.69;4165226;28;20628;-50
2024/01/01 04:10:29;;;;;;;1.65;1.42;;;;;;;6.31;100.00;97646.63;4168932;28;20204;-51
2024/01/01 04:12:31;;;;;;;0.98;0.80;;;;;;;6.21;100.00;97643.72;4165136;28;20338;-51
2024/01/01 04:14:33;;;;;;;1.70;1.45;;;;;;;6.01;100.00;97646.06;4167004;28;20205;-52
2024/01/01 04:16:36;;;;;;;2.92;1.17;;;;;;;6.13;100.00;97646.84;4168560;28;20209;-51
2024/01/01 04:18:39;;;;;;;2.65;1.52;;;;;;;6.06;100.00;97646.16;4166430;28;20943;-51
2024/01/01 04:20:41;;;;;;;2.25;2.15;;;;;;;6.05;100.00;97645.34;4170179;28;20259;-51
2024/01/01 04:22:43;;;;;;;1.48;1.35;;;;;;;5.99;100.00;97650.91;4167121;28;20684;-50
2024/01/01 04:24:45;;;;;;;1.10;1.10;;;;;;;5.95;100.00;97647.84;4167530;28;20223;-51
2024/01/01 04:26:46;;;;;;;2.03;1.23;;;;;;;5.95;100.00;97644.34;4166502;28;20209;-51
2024/01/01 04:28:48;;;;;;;1.15;1.10;;;;;;;5.93;100.00;97647.28;4164093;28;20224;-51
2024/01/01 04:30:50;;;;;;;0.77;0.77;;;;;;;5.97;100.00;97653.06;4165482;28;20401;-50
2024/01/01 04:32:52;;;;;;;1.63;1.52;;;;;;;6.00;100.00;97652.56;4169483;28;20236;-51
2024/01/01 04:34:53;;;;;;;0.80;0.80;;;;;;;5.94;100.00;97653.53;4153095;28;20292;-50
2024/01/01 04:36:55;;;;;;;8.88;1.65;;;;;;;5.98;100.00;97665.56;4168331;28;20225;-49
2024/01/01 04:38:57;;;;;;;0.98;0.98;;;;;;;5.99;100.00;97659.06;4166254;28;20227;-51
2024/01/01 04:40:59;;;;;;;0.82;0.82;;;;;;;5.97;100.00;97658.47;4172676;28;20238;-51
2024/01/01 04:43:01;;;;;;;3.00;1.30;;;;;;;6.01;100.00;97656.91;4167391;28;20209;-50
2024/01/01 04:45:03;;;;;;;12.85;1.00;;;;;;;6.05;100.00;97660.81;4168657;28;20915;-51
2024/01/01 04:47:04;;;;;;;7.00;3.13;;;;;;;6.04;100.00;97656.44;4169638;28;20273;-52
2024/01/01 04:49:06;;;;;;;7.15;1.05;;;;;;;6.06;100.00;97662.44;4169143;28;20232;-52
2024/01/01 04:51:08;;;;;;;2.08;1.30;;;;;;;6.08;100.00;97654.91;4173383;28;20306;-51
2024/01/01 04:53:11;;;;;;;1.42;1.30;;;;;;;6.07;100.00;97653.22;4170916;28;20294;-51
2024/01/01 04:55:13;;;;;;;2.05;1.70;;;;;;;6.06;100.00;97648.88;4171152;28;20327;-52
2024/01/01 04:57:15;;;;;;;1.20;1.15;;;;;;;6.07;100.00;97658.66;4170543;28;20204;-52
2024/01/01 04:59:16;;;;;;;0.90;0.90;;;;;;;6.10;100.00;97658.19;4177194;28;20228;-50
2024/01/01 05:01:18;;;;;;;1.15;1.10;;;;;;;6.09;100.00;97661.97;4175883;28;20203;-50
2024/01/01 05:03:20;;;;;;;1.15;1.05;;;;;;;6.10;100.00;97664.44;4161119;28;20245;-51
2024/01/01 05:05:25;;;;;;;2.30;1.10;;;;;;;6.09;100.00;97667.41;4176897;28;20646;-51
2024/01/01 05:07:27;;;;;;;3.03;1.88;;;;;;;6.10;100.00;97669.88;4165040;28;20208;-50
2024/01/01 05:09:29;;;;;;;0.90;0.90;;;;;;;6.14;100.00;97664.78;4166839;28;20270;-51
2024/01/01 05:11:30;;;;;;;1.00;1.00;;;;;;;6.06;100.00;97667.88;4173363;28;20791;-53
2024/01/01 05:13:32;;;;;;;2.35;2.15;;;;;;;6.09;100.00;97667.41;4166880;28;20209;-50
2024/01/01 05:15:34;;;;;;;1.45;1.38;;;;;;;6.09;100.00;97667.41;4164797;28;20196;-50
2024/01/01 05:17:36;;;;;;;0.93;0.93;;;;;;;6.10;100.00;97669.88;4164394;28;20204;-52
2024/01/01 05:19:37;;;;;;;18.52;2.08;;;;;;;6.05;100.00;97649.94;4173970;28;20228;-51
2024/01/01 05:21:39;;;;;;;4.35;1.52;;;;;;;6.09;100.00;97656.56;4166425;28;20633;-51
2024/01/01 05:23:41;;;;;;;2.25;2.05;;;;;;;6.08;100.00;97660.34;4170057;28;20215;-50
2024/01/01 05:25:43;;;;;;;0.85;0.85;;;;;;;6.13;100.00;97663.13;4174514;28;20250;-51
2024/01/01 05:27:44;;;;;;;1.20;1.20;;;;;;;6.08;100.00;97668.50;4164153;28;20208;-57
2024/01/01 05:29:46;;;;;;;4.03;1.40;;;;;;;6.07;100.00;97664.94;4167428;28;20232;-51
2024/01/01 05:31:48;;;;;;;0.70;0.70;;;;;;;6.06;100.00;97666.00;4172803;28;20208;-50
2024/01/01 05:33:50;;;;;;;2.92;1.55;;;;;;;6.10;100.00;97658.19;4173917;28;20204;-51
2024/01/01 05:35:52;;;;;;;1.45;1.35;;;;;;;6.10;100.00;97653.56;4165444;28;20212;-53
2024/01/01 05:37:55;;;;;;;1.52;1.42;;;;;;;6.08;100.00;97671.19;4169107;28;20582;-49
2024/01/01 05:39:56;;;;;;;1.02;1.00;;;;;;;6.10;100.00;97674.50;4167296;28;20242;-51
2024/01/01 05:41:58;;;;;;;2.25;1.08;;;;;;;6.09;100.00;97659.28;4168455;28;20215;-52
2024/01/01 05:44:01;;;;;;;1.77;1.55;;;;;;;6.10;100.00;97669.88;4166341;28;21070;-51
2024/01/01 05:46:03;;;;;;;14.35;2.75;;;;;;;6.11;100.00;97665.28;4164421;28;20219;-53
2024/01/01 05:48:05;;;;;;;0.68;0.68;;;;;;;6.13;100.00;97657.69;4148037;28;20205;-50
2024/01/01 05:50:07;;;;;;;1.25;1.25;;;;;;;6.13;100.00;97665.84;4168988;28;20227;-50
2024/01/01 05:52:09;;;;;;;3.20;2.13;;;;;;;6.10;100.00;97674.50;4166009;28;20252;-50
2024/01/01 05:54:11;;;;;;;1.00;0.98;;;;;;;6.12;100.00;97661.47;4165686;28;20209;-50
2024/01/01 05:56:13;;;;;;;1.55;1.45;;;;;;;6.10;100.00;97675.28;4168050;28;20209;-51
2024/01/01 05:58:15;;;;;;;1.95;1.95;;;;;;;6.11;100.00;97684.28;4195025;28;20199;-53
2024/01/01 06:00:19;;;;;;;7.25;2.10;;;;;;;6.09;100.00;97672.84;4165947;28;20207;-51
2024/01/01 06:02:20;;;;;;;1.02;1.02;;;;;;;6.06;100.00;97689.59;4157622;28;20239;-53
2024/01/01 06:04:22;;;;;;;4.65;2.05;;;;;;;6.04;100.00;97697.19;4171933;28;20239;-50
2024/01/01 06:06:24;;;;;;;1.92;1.02;;;;;;;6.06;100.00;97697.75;4180984;28;20257;-52
2024/01/01 06:08:26;;;;;;;1.83;1.73;;;;;;;6.13;100.00;97693.00;4172662;28;20767;-50
2024/01/01 06:10:28;;;;;;;8.75;0.85;;;;;;;6.13;100.00;97701.16;4172079;28;20282;-53
2024/01/01 06:12:30;;;;;;;0.80;0.80;;;;;;;6.12;100.00;97699.50;4172948;28;20911;-51
2024/01/01 06:14:32;;;;;;;2.60;0.70;;;;;;;6.09;100.00;97710.88;4168009;28;20212;-52
2024/01/01 06:16:34;;;;;;;7.40;2.55;;;;;;;6.08;100.00;97710.03;4164704;28;20241;-51
2024/01/01 06:18:35;;;;;;;1.08;1.08;;;;;;;6.08;100.00;97692.94;4167619;28;20247;-53
2024/01/01 06:20:40;;;;;;;1.00;1.00;;;;;;;6.11;100.00;97704.13;4167488;28;20266;-51
2024/01/01 06:22:45;;;;;;;1.42;1.42;;;;;;;6.08;100.00;97698.34;4168156;28;20274;-51
2024/01/01 06:24:47;;;;;;;1.10;1.10;;;;;;;6.09;100.00;97705.44;4167036;28;20216;-51
2024/01/01 06:26:48;;;;;;;1.75;1.10;;;;;;;6.11;100.00;97692.44;4165624;28;20213;-52
2024/01/01 06:28:50;;;;;;;2.80;2.22;;;;;;;6.13;100.00;97701.16;4167111;28;20286;-53
2024/01/01 06:30:52;;;;;;;2.08;1.98;;;;;;;6.07;100.00;97707.53;4175306;28;20219;-55
2024/01/01 06:32:57;;;;;;;4.30;2.42;;;;;;;6.09;100.00;97721.72;4171467;28;20250;-55
2024/01/01 06:34:59;;;;;;;1.42;1.42;;;;;;;6.08;100.00;97706.50;4176683;28;20756;-52
2024/01/01 06:37:01;;;;;;;1.77;1.63;;;;;;;6.10;100.00;97724.19;4156944;28;20209;-50
2024/01/01 06:39:03;;;;;;;4.63;2.50;;;;;;;6.13;100.00;97722.88;4172516;28;20779;-51
2024/01/01 06:41:05;;;;;;;3.33;1.70;;;;;;;6.15;100.00;97715.34;4170301;28;20573;-52
2024/01/01 06:43:07;;;;;;;1.38;1.08;;;;;;;6.15;100.00;97718.06;4177999;28;20577;-51
2024/01/01 06:45:09;;;;;;;2.30;0.70;;;;;;;6.18;100.00;97717.56;4178505;28;20219;-51
2024/01/01 06:47:11;;;;;;;2.83;2.13;;;;;;;6.18;100.00;97734.69;4171895;28;20844;-53
2024/01/01 06:49:13;;;;;;;12.13;2.92;;;;;;;6.22;100.00;97730.41;4172993;28;20227;-51
2024/01/01 06:51:14;;;;;;;3.10;1.30;;;;;;;6.14;100.00;97729.94;4168916;28;20204;-50
2024/01/01 06:53:16;;;;;;;7.78;1.15;;;;;;;6.15;100.00;97742.50;4169735;28;20213;-50
2024/01/01 06:55:18;;;;;;;1.55;1.40;;;;;;;6.21;100.00;97725.19;4157646;28;20223;-51
2024/01/01 06:57:20;;;;;;;2.67;1.67;;;;;;;6.21;100.00;97736.06;4179026;28;20208;-50
2024/01/01 06:59:27;;;;;;;3.83;2.60;;;;;;;6.26;100.00;97752.47;4171109;28;21150;-50
2024/01/01 07:01:29;;;;;;;2.70;2.55;;;;;;;6.24;100.00;97752.72;4170394;28;20205;-50
2024/01/01 07:03:30;;;;;;;3.63;1.80;;;;;;;6.28;100.00;97747.66;4169648;28;20295;-51
2024/01/01 07:05:33;;;;;;;12.85;1.63;;;;;;;6.28;100.00;97743.03;4167209;28;20282;-50
2024/01/01 07:07:36;;;;;;;1.20;1.20;;;;;;;6.26;100.00;97747.03;4169666;28;20204;-50
2024/01/01 07:09:38;;;;;;;27.65;2.17;;;;;;;6.19;100.00;97755.34;4170729;28;20971;-50
2024/01/01 07:11:40;;;;;;;3.47;1.02;;;;;;;6.26;100.00;97771.47;4168608;28;20651;-51
2024/01/01 07:13:42;;;;;;;1.90;1.88;;;;;;;6.26;100.00;97771.47;4166958;28;20201;-50
2024/01/01 07:15:44;;;;;;;1.25;1.23;;;;;;;6.25;100.00;97775.28;4157201;28;20236;-51
2024/01/01 07:17:45;;;;;;;5.82;3.40;;;;;;;6.22;100.00;97763.00;4168596;28;20209;-54
2024/01/01 07:19:47;;;;;;;1.35;1.27;;;;;;;6.19;100.00;97754.50;4168957;28;20229;-50
2024/01/01 07:21:49;;;;;;;10.43;1.48;;;;;;;6.26;100.00;97757.91;4160075;28;20714;-51
2024/01/01 07:23:51;;;;;;;1.35;1.10;;;;;;;6.29;100.00;97763.69;4175630;28;20738;-55
2024/01/01 07:25:52;;;;;;;3.05;2.38;;;;;;;6.26;100.00;97766.91;4167656;28;20232;-53
2024/01/01 07:27:54;;;;;;;1.23;1.13;;;;;;;6.26;100.00;97766.06;4169514;28;20378;-50
2024/01/01 07:29:56;;;;;;;5.95;1.88;;;;;;;6.28;100.00;97772.09;4175485;28;20261;-51
2024/01/01 07:31:58;;;;;;;2.63;1.90;;;;;;;6.27;100.00;97764.97;4172606;28;20212;-50
2024/01/01 07:34:00;;;;;;;7.03;1.48;;;;;;;6.29;100.00;97760.16;4175453;28;20215;-53
2024/01/01 07:36:03;;;;;;;5.32;1.00;;;;;;;6.29;100.00;97784.59;4169126;28;20346;-53
2024/01/01 07:38:04;;;;;;;1.63;1.52;;;;;;;6.32;100.00;97767.81;4171454;28;20212;-50
2024/01/01 07:40:07;;;;;;;7.30;2.13;;;;;;;6.22;100.00;97770.34;4168027;28;20278;-54
2024/01/01 07:42:09;;;;;;;2.25;1.65;;;;;;;6.18;100.00;97780.84;4175615;28;20271;-51
2024/01/01 07:44:11;;;;;;;0.98;0.95;;;;;;;6.17;100.00;97772.94;4168025;28;20649;-51
2024/01/01 07:46:12;;;;;;;6.20;1.42;;;;;;;6.20;100.00;97794.19;4167913;28;20826;-51
2024/01/01 07:48:14;;;;;;;5.13;2.15;;;;;;;6.16;100.00;97782.97;4174234;28;20893;-50
2024/01/01 07:50:16;;;;;;;2.00;1.90;;;;;;;6.16;100.00;97790.31;4157325;28;20266;-53
2024/01/01 07:52:22;;;;;;;1.20;1.10;;;;;;;6.22;100.00;97813.78;4153424;28;20205;-52
2024/01/01 07:54:24;;;;;;;2.85;1.23;;;;;;;6.22;100.00;97792.06;4167346;28;20227;-53
2024/01/01 07:56:26;;;;;;;1.70;1.10;;;;;;;6.22;100.00;97794.78;4170432;28;20716;-51
2024/01/01 07:58:30;;;;;;;1.73;1.60;;;;;;;6.21;100.00;97795.81;4171464;28;20208;-52
2024/01/01 08:00:32;;;;;;;2.97;2.58;;;;;;;6.28;100.00;97801.97;4167998;28;20219;-51
2024/01/01 08:02:34;;;;;;;1.58;1.38;;;;;;;6.24;100.00;97800.78;4169515;28;20205;-50
2024/01/01 08:04:35;;;;;;;0.82;0.82;;;;;;;6.28;100.00;97810.13;4166230;28;20219;-52
2024/01/01 08:06:37;;;;;;;1.30;1.30;;;;;;;6.28;100.00;97813.66;4167094;28;20205;-50
2024/01/01 08:08:40;;;;;;;2.10;1.77;;;;;;;6.32;100.00;97814.00;4168704;28;20232;-54
2024/01/01 08:10:43;;;;;;;1.10;1.10;;;;;;;6.35;100.00;97824.41;4168813;28;20223;-50
2024/01/01 08:12:45;;;;;;;1.55;1.42;;;;;;;6.40;100.00;97821.75;4172362;28;20261;-51
2024/01/01 08:14:46;;;;;;;3.58;1.65;;;;;;;6.44;100.00;97812.06;4169878;28;20712;-51
2024/01/01 08:16:48;;;;;;;0.90;0.90;;;;;;;6.48;100.00;97818.69;4169198;28;20255;-51
2024/01/01 08:18:52;;;;;;;2.78;2.45;;;;;;;6.44;100.00;97828.38;4174465;28;20227;-51
2024/01/01 08:20:55;;;;;;;9.15;0.95;;;;;;;6.46;100.00;97824.34;4167494;28;20228;-50
2024/01/01 08:22:57;;;;;;;0.90;0.90;;;;;;;6.44;100.00;97820.22;4174849;28;20251;-49
2024/01/01 08:24:58;;;;;;;3.70;1.55;;;;;;;6.43;100.00;97822.09;4172087;28;20315;-48
2024/01/01 08:27:01;;;;;;;1.13;1.13;;;;;;;6.41;100.00;97828.84;4198052;28;20234;-50
2024/01/01 08:29:02;;;;;;;7.95;1.20;;;;;;;6.39;100.00;97828.25;4167684;28;20235;-51
2024/01/01 08:31:04;;;;;;;4.53;1.38;;;;;;;6.39;100.00;97826.38;4177022;28;20209;-50
2024/01/01 08:33:06;;;;;;;1.55;0.80;;;;;;;6.45;100.00;97830.03;4166441;28;20578;-49
2024/01/01 08:35:08;;;;;;;3.90;1.25;;;;;;;6.49;100.00;97840.16;4165156;28;20312;-49
2024/01/01 08:37:12;;;;;;;2.95;2.33;;;;;;;6.50;100.00;97827.41;4166959;28;20208;-49
2024/01/01 08:39:14;;;;;;;6.18;1.08;;;;;;;6.55;100.00;97827.53;4167252;28;20232;-49
2024/01/01 08:41:16;;;;;;;0.95;0.95;;;;;;;6.46;100.00;97837.09;4172771;28;20218;-50
2024/01/01 08:43:20;;;;;;;1.42;1.33;;;;;;;6.48;100.00;97841.22;4166903;28;20729;-50
2024/01/01 08:45:22;;;;;;;1.15;1.10;;;;;;;6.46;100.00;97837.09;4171067;28;20763;-49
2024/01/01 08:47:24;;;;;;;2.10;1.58;;;;;;;6.44;100.00;97837.38;4176415;28;20230;-50
2024/01/01 08:49:26;;;;;;;1.88;1.55;;;;;;;6.45;100.00;97843.59;4168675;28;20224;-50
2024/01/01 08:51:27;;;;;;;1.80;1.02;;;;;;;6.43;100.00;97854.72;4169789;28;20633;-50
2024/01/01 08:53:30;;;;;;;1.50;1.40;;;;;;;6.36;100.00;97855.94;4171601;28;20208;-49
2024/01/01 08:55:36;;;;;;;0.90;0.90;;;;;;;6.33;100.00;97853.66;4170911;28;20200;-50
2024/01/01 08:57:39;;;;;;;1.08;1.08;;;;;;;6.35;100.00;97857.00;4168714;28;20239;-50
2024/01/01 08:59:41;;;;;;;2.97;1.60;;;;;;;6.32;100.00;97862.88;4167974;28;20298;-49
2024/01/01 09:01:44;;;;;;;1.02;1.00;;;;;;;6.26;100.00;97877.44;4168667;28;20208;-51
2024/01/01 09:03:46;;;;;;;9.02;1.40;;;;;;;6.23;100.00;97865.13;4167679;28;20247;-50
2024/01/01 09:05:48;;;;;;;3.75;1.40;;;;;;;6.23;100.00;97869.75;4174215;28;20230;-50
2024/01/01 09:07:50;;;;;;;0.63;0.63;;;;;;;6.26;100.00;97866.56;4168195;28;20205;-51
2024/01/01 09:09:52;;;;;;;1.23;1.08;;;;;;;6.29;100.00;97882.41;4171306;28;20298;-50
2024/01/01 09:11:54;;;;;;;0.90;0.90;;;;;;;6.31;100.00;97882.97;4165512;28;20216;-53
2024/01/01 09:13:56;;;;;;;1.05;1.05;;;;;;;6.28;100.00;97888.91;4168637;28;20262;-51
2024/01/01 09:15:59;;;;;;;1.50;1.38;;;;;;;6.29;100.00;97891.34;4173374;28;20246;-50
2024/01/01 09:18:01;;;;;;;1.05;1.05;;;;;;;6.31;100.00;97888.41;4174363;28;20211;-50
2024/01/01 09:20:04;;;;;;;1.48;1.35;;;;;;;6.34;100.00;97885.19;4173490;28;20267;-50
2024/01/01 09:22:06;;;;;;;3.03;1.33;;;;;;;6.37;100.00;97890.97;4172421;28;20212;-54
2024/01/01 09:24:09;;;;;;;2.25;0.95;;;;;;;6.36;100.00;97897.47;4155724;28;20212;-49
2024/01/01 09:26:12;;;;;;;10.25;2.08;;;;;;;6.41;100.00;97900.31;4174410;28;20228;-51
2024/01/01 09:28:14;;;;;;;2.03;1.40;;;;;;;6.41;100.00;97896.75;4153693;28;20269;-52
2024/01/01 09:30:17;;;;;;;2.15;1.95;;;;;;;6.52;100.00;97895.94;4168951;28;20204;-52
2024/01/01 09:32:18;;;;;;;1.60;1.50;;;;;;;6.52;100.00;97890.50;4169178;28;20291;-51
2024/01/01 09:34:20;;;;;;;1.77;1.20;;;;;;;6.61;100.00;97895.31;4167921;28;20211;-49
2024/01/01 09:36:22;;;;;;;1.42;1.38;;;;;;;6.69;100.00;97891.41;4167676;28;20249;-49